sensor_id;sensor_type;location;lat;lon;timestamp;temperature;humidity
19906;DHT22;10115;50.906;4.438;2023-05-07T00:01:43;16.70;99.90
19906;DHT22;10115;50.906;4.438;2023-05-07T00:04:09;16.70;99.90
19906;DHT22;10115;50.906;4.438;2023-05-07T00:06:35;16.70;99.90
19906;DHT22;10115;50.906;4.438;2023-05-07T00:09:01;16.80;99.90
19906;DHT22;10115;50.906;4.438;2023-05-07T00:11:27;16.90;99.90
19906;DHT22;10115;50.906;4.438;2023-05-07T00:13:54;16.80;99.90
19906;DHT22;10115;50.906;4.438;2023-05-07T00:16:20;16.90;99.90
19906;DHT22;10115;50.906;4.438;2023-05-07T00:18:47;16.80;99.90
19906;DHT22;10115;50.906;4.438;2023-05-07T00:21:15;16.70;99.90
19906;DHT22;10115;50.906;4.438;2023-05-07T00:23:41;16.80;99.90
19906;DHT22;10115;50.906;4.438;2023-05-07T00:26:07;17.00;99.90
19906;DHT22;10115;50.906;4.438;2023-05-07T00:28:33;16.90;99.90
19906;DHT22;10115;50.906;4.438;2023-05-07T00:31:07;17.10;99.90
19906;DHT22;10115;50.906;4.438;2023-05-07T00:33:33;17.10;99.90
19906;DHT22;10115;50.906;4.438;2023-05-07T00:36:00;16.90;99.90
19906;DHT22;10115;50.906;4.438;2023-05-07T00:38:27;16.70;99.90
19906;DHT22;10115;50.906;4.438;2023-05-07T00:40:52;16.80;99.90
19906;DHT22;10115;50.906;4.438;2023-05-07T00:43:20;16.80;99.90
19906;DHT22;10115;50.906;4.438;2023-05-07T00:45:46;16.90;99.90
19906;DHT22;10115;50.906;4.438;2023-05-07T00:48:12;16.80;99.90
19906;DHT22;10115;50.906;4.438;2023-05-07T00:50:38;16.80;99.90
19906;DHT22;10115;50.906;4.438;2023-05-07T00:53:04;16.70;99.90
19906;DHT22;10115;50.906;4.438;2023-05-07T00:55:30;16.70;99.90
19906;DHT22;10115;50.906;4.438;2023-05-07T00:57:56;16.70;99.90
19906;DHT22;10115;50.906;4.438;2023-05-07T01:00:21;16.70;99.90
19906;DHT22;10115;50.906;4.438;2023-05-07T01:02:47;16.70;99.90
19906;DHT22;10115;50.906;4.438;2023-05-07T01:05:15;16.70;99.90
19906;DHT22;10115;50.906;4.438;2023-05-07T01:07:42;16.80;99.90
19906;DHT22;10115;50.906;4.438;2023-05-07T01:10:08;16.80;99.90
19906;DHT22;10115;50.906;4.438;2023-05-07T01:12:36;16.90;99.90
19906;DHT22;10115;50.906;4.438;2023-05-07T01:15:03;17.00;99.90
19906;DHT22;10115;50.906;4.438;2023-05-07T01:17:32;16.90;99.90
19906;DHT22;10115;50.906;4.438;2023-05-07T01:19:58;16.90;99.90
19906;DHT22;10115;50.906;4.438;2023-05-07T01:22:31;17.00;99.90
19906;DHT22;10115;50.906;4.438;2023-05-07T01:24:58;16.90;99.90
19906;DHT22;10115;50.906;4.438;2023-05-07T01:27:25;16.90;99.90
19906;DHT22;10115;50.906;4.438;2023-05-07T01:29:51;16.90;99.90
19906;DHT22;10115;50.906;4.438;2023-05-07T01:32:19;16.70;99.90
19906;DHT22;10115;50.906;4.438;2023-05-07T01:34:48;16.50;99.90
19906;DHT22;10115;50.906;4.438;2023-05-07T01:37:14;16.50;99.90
19906;DHT22;10115;50.906;4.438;2023-05-07T01:39:40;16.40;99.90
19906;DHT22;10115;50.906;4.438;2023-05-07T01:42:06;16.40;99.90
19906;DHT22;10115;50.906;4.438;2023-05-07T01:44:32;16.50;99.90
19906;DHT22;10115;50.906;4.438;2023-05-07T01:46:58;16.70;99.90
19906;DHT22;10115;50.906;4.438;2023-05-07T01:49:25;16.60;99.90
19906;DHT22;10115;50.906;4.438;2023-05-07T01:51:51;16.60;99.90
19906;DHT22;10115;50.906;4.438;2023-05-07T01:54:17;16.70;99.90
19906;DHT22;10115;50.906;4.438;2023-05-07T01:56:42;16.60;99.90
19906;DHT22;10115;50.906;4.438;2023-05-07T01:59:08;16.40;99.90
19906;DHT22;10115;50.906;4.438;2023-05-07T02:01:34;16.40;99.90
19906;DHT22;10115;50.906;4.438;2023-05-07T02:04:00;16.30;99.90
19906;DHT22;10115;50.906;4.438;2023-05-07T02:06:25;16.30;99.90
19906;DHT22;10115;50.906;4.438;2023-05-07T02:08:51;16.30;99.90
19906;DHT22;10115;50.906;4.438;2023-05-07T02:11:17;16.20;99.90
19906;DHT22;10115;50.906;4.438;2023-05-07T02:13:42;16.10;99.90
19906;DHT22;10115;50.906;4.438;2023-05-07T02:16:08;16.10;99.90
19906;DHT22;10115;50.906;4.438;2023-05-07T02:18:34;16.10;99.90
19906;DHT22;10115;50.906;4.438;2023-05-07T02:21:01;16.20;99.90
19906;DHT22;10115;50.906;4.438;2023-05-07T02:23:26;16.20;99.90
19906;DHT22;10115;50.906;4.438;2023-05-07T02:25:52;16.20;99.90
19906;DHT22;10115;50.906;4.438;2023-05-07T02:28:18;16.10;99.90
19906;DHT22;10115;50.906;4.438;2023-05-07T02:30:43;16.10;99.90
19906;DHT22;10115;50.906;4.438;2023-05-07T02:33:09;16.00;99.90
19906;DHT22;10115;50.906;4.438;2023-05-07T02:35:35;16.00;99.90
19906;DHT22;10115;50.906;4.438;2023-05-07T02:38:00;16.00;99.90
19906;DHT22;10115;50.906;4.438;2023-05-07T02:40:26;16.00;99.90
19906;DHT22;10115;50.906;4.438;2023-05-07T02:42:52;16.00;99.90
19906;DHT22;10115;50.906;4.438;2023-05-07T02:45:17;16.00;99.90
19906;DHT22;10115;50.906;4.438;2023-05-07T02:47:43;15.90;99.90
19906;DHT22;10115;50.906;4.438;2023-05-07T02:50:09;15.80;99.90
19906;DHT22;10115;50.906;4.438;2023-05-07T02:52:35;15.70;99.90
19906;DHT22;10115;50.906;4.438;2023-05-07T02:55:00;15.60;99.90
19906;DHT22;10115;50.906;4.438;2023-05-07T02:57:26;15.60;99.90
19906;DHT22;10115;50.906;4.438;2023-05-07T02:59:52;15.50;99.90
19906;DHT22;10115;50.906;4.438;2023-05-07T03:02:17;15.50;99.90
19906;DHT22;10115;50.906;4.438;2023-05-07T03:04:43;15.50;99.90
19906;DHT22;10115;50.906;4.438;2023-05-07T03:07:09;15.50;99.90
19906;DHT22;10115;50.906;4.438;2023-05-07T03:09:34;15.50;99.90
19906;DHT22;10115;50.906;4.438;2023-05-07T03:12:00;15.60;99.90
19906;DHT22;10115;50.906;4.438;2023-05-07T03:14:27;15.60;99.90
19906;DHT22;10115;50.906;4.438;2023-05-07T03:16:52;15.70;99.90
19906;DHT22;10115;50.906;4.438;2023-05-07T03:19:18;15.70;99.90
19906;DHT22;10115;50.906;4.438;2023-05-07T03:21:44;15.80;99.90
19906;DHT22;10115;50.906;4.438;2023-05-07T03:24:09;15.70;99.90
19906;DHT22;10115;50.906;4.438;2023-05-07T03:26:35;15.60;99.90
19906;DHT22;10115;50.906;4.438;2023-05-07T03:29:01;15.70;99.90
19906;DHT22;10115;50.906;4.438;2023-05-07T03:31:27;15.80;99.90
19906;DHT22;10115;50.906;4.438;2023-05-07T03:33:55;15.80;99.90
19906;DHT22;10115;50.906;4.438;2023-05-07T03:36:21;15.90;99.90
19906;DHT22;10115;50.906;4.438;2023-05-07T03:38:48;16.00;99.90
19906;DHT22;10115;50.906;4.438;2023-05-07T03:41:13;15.90;99.90
19906;DHT22;10115;50.906;4.438;2023-05-07T03:43:39;16.00;99.90
19906;DHT22;10115;50.906;4.438;2023-05-07T03:46:05;16.00;99.90
19906;DHT22;10115;50.906;4.438;2023-05-07T03:48:31;16.00;99.90
19906;DHT22;10115;50.906;4.438;2023-05-07T03:50:57;16.10;99.90
19906;DHT22;10115;50.906;4.438;2023-05-07T03:53:23;16.10;99.90
19906;DHT22;10115;50.906;4.438;2023-05-07T03:55:49;16.20;99.90
19906;DHT22;10115;50.906;4.438;2023-05-07T03:58:15;16.20;99.90
19906;DHT22;10115;50.906;4.438;2023-05-07T04:00:41;16.20;99.90
19906;DHT22;10115;50.906;4.438;2023-05-07T04:03:07;16.20;99.90
19906;DHT22;10115;50.906;4.438;2023-05-07T04:05:33;16.20;99.90
19906;DHT22;10115;50.906;4.438;2023-05-07T04:07:59;16.20;99.90
19906;DHT22;10115;50.906;4.438;2023-05-07T04:10:25;16.20;99.90
19906;DHT22;10115;50.906;4.438;2023-05-07T04:12:51;16.10;99.90
19906;DHT22;10115;50.906;4.438;2023-05-07T04:15:17;15.80;99.90
19906;DHT22;10115;50.906;4.438;2023-05-07T04:17:43;15.70;99.90
19906;DHT22;10115;50.906;4.438;2023-05-07T04:20:15;15.80;99.90
19906;DHT22;10115;50.906;4.438;2023-05-07T04:22:41;15.70;99.90
19906;DHT22;10115;50.906;4.438;2023-05-07T04:25:08;15.90;99.90
19906;DHT22;10115;50.906;4.438;2023-05-07T04:27:37;16.00;99.90
19906;DHT22;10115;50.906;4.438;2023-05-07T04:30:03;16.10;99.90
19906;DHT22;10115;50.906;4.438;2023-05-07T04:32:29;16.10;99.90
19906;DHT22;10115;50.906;4.438;2023-05-07T04:34:56;16.10;99.90
19906;DHT22;10115;50.906;4.438;2023-05-07T04:37:22;15.90;99.90
19906;DHT22;10115;50.906;4.438;2023-05-07T04:39:48;15.60;99.90
19906;DHT22;10115;50.906;4.438;2023-05-07T04:42:17;15.30;99.90
19906;DHT22;10115;50.906;4.438;2023-05-07T04:44:44;15.20;99.90
19906;DHT22;10115;50.906;4.438;2023-05-07T04:47:11;15.40;99.90
19906;DHT22;10115;50.906;4.438;2023-05-07T04:49:38;15.60;99.90
19906;DHT22;10115;50.906;4.438;2023-05-07T04:52:03;15.80;99.90
19906;DHT22;10115;50.906;4.438;2023-05-07T04:54:29;15.90;99.90
19906;DHT22;10115;50.906;4.438;2023-05-07T04:56:55;16.00;99.90
19906;DHT22;10115;50.906;4.438;2023-05-07T04:59:21;15.70;99.90
19906;DHT22;10115;50.906;4.438;2023-05-07T05:01:47;15.50;99.90
19906;DHT22;10115;50.906;4.438;2023-05-07T05:04:12;15.70;99.90
19906;DHT22;10115;50.906;4.438;2023-05-07T05:06:38;15.70;99.90
19906;DHT22;10115;50.906;4.438;2023-05-07T05:09:04;15.90;99.90
19906;DHT22;10115;50.906;4.438;2023-05-07T05:11:31;16.10;99.90
19906;DHT22;10115;50.906;4.438;2023-05-07T05:13:56;16.20;99.90
19906;DHT22;10115;50.906;4.438;2023-05-07T05:16:22;16.40;99.90
19906;DHT22;10115;50.906;4.438;2023-05-07T05:18:48;16.50;99.90
19906;DHT22;10115;50.906;4.438;2023-05-07T05:21:14;16.70;99.90
19906;DHT22;10115;50.906;4.438;2023-05-07T05:23:39;16.80;99.90
19906;DHT22;10115;50.906;4.438;2023-05-07T05:26:05;16.90;99.90
19906;DHT22;10115;50.906;4.438;2023-05-07T05:28:31;17.00;99.90
19906;DHT22;10115;50.906;4.438;2023-05-07T05:30:56;17.20;99.90
19906;DHT22;10115;50.906;4.438;2023-05-07T05:33:22;17.10;99.90
19906;DHT22;10115;50.906;4.438;2023-05-07T05:35:49;17.30;99.90
19906;DHT22;10115;50.906;4.438;2023-05-07T05:38:15;17.40;99.90
19906;DHT22;10115;50.906;4.438;2023-05-07T05:40:41;17.40;99.90
19906;DHT22;10115;50.906;4.438;2023-05-07T05:43:07;17.60;99.90
19906;DHT22;10115;50.906;4.438;2023-05-07T05:45:32;17.70;99.90
19906;DHT22;10115;50.906;4.438;2023-05-07T05:47:58;17.70;99.90
19906;DHT22;10115;50.906;4.438;2023-05-07T05:50:24;17.70;99.90
19906;DHT22;10115;50.906;4.438;2023-05-07T05:52:50;17.70;99.90
19906;DHT22;10115;50.906;4.438;2023-05-07T05:55:16;17.90;99.90
19906;DHT22;10115;50.906;4.438;2023-05-07T05:57:41;17.80;99.90
19906;DHT22;10115;50.906;4.438;2023-05-07T06:00:08;17.70;99.90
19906;DHT22;10115;50.906;4.438;2023-05-07T06:02:34;17.70;99.90
19906;DHT22;10115;50.906;4.438;2023-05-07T06:04:59;17.80;99.90
19906;DHT22;10115;50.906;4.438;2023-05-07T06:07:25;17.70;99.90
19906;DHT22;10115;50.906;4.438;2023-05-07T06:09:51;17.60;99.90
19906;DHT22;10115;50.906;4.438;2023-05-07T06:12:16;17.10;99.90
19906;DHT22;10115;50.906;4.438;2023-05-07T06:14:45;16.70;99.90
19906;DHT22;10115;50.906;4.438;2023-05-07T06:17:11;16.10;99.90
19906;DHT22;10115;50.906;4.438;2023-05-07T06:19:37;15.90;99.90
19906;DHT22;10115;50.906;4.438;2023-05-07T06:22:02;15.90;99.90
19906;DHT22;10115;50.906;4.438;2023-05-07T06:24:28;15.70;99.90
19906;DHT22;10115;50.906;4.438;2023-05-07T06:26:54;15.60;99.90
19906;DHT22;10115;50.906;4.438;2023-05-07T06:29:20;15.80;99.90
19906;DHT22;10115;50.906;4.438;2023-05-07T06:31:46;16.10;99.90
19906;DHT22;10115;50.906;4.438;2023-05-07T06:34:11;16.30;99.90
19906;DHT22;10115;50.906;4.438;2023-05-07T06:36:40;16.20;99.90
19906;DHT22;10115;50.906;4.438;2023-05-07T06:39:06;16.00;99.90
19906;DHT22;10115;50.906;4.438;2023-05-07T06:41:32;16.10;99.90
19906;DHT22;10115;50.906;4.438;2023-05-07T06:43:57;16.10;99.90
19906;DHT22;10115;50.906;4.438;2023-05-07T06:46:23;16.00;99.90
19906;DHT22;10115;50.906;4.438;2023-05-07T06:48:49;15.90;99.90
19906;DHT22;10115;50.906;4.438;2023-05-07T06:51:14;15.90;99.90
19906;DHT22;10115;50.906;4.438;2023-05-07T06:53:40;15.80;99.90
19906;DHT22;10115;50.906;4.438;2023-05-07T06:56:06;15.80;99.90
19906;DHT22;10115;50.906;4.438;2023-05-07T06:58:32;15.80;99.90
19906;DHT22;10115;50.906;4.438;2023-05-07T07:00:57;15.70;99.90
19906;DHT22;10115;50.906;4.438;2023-05-07T07:03:23;15.70;99.90
19906;DHT22;10115;50.906;4.438;2023-05-07T07:05:52;15.80;99.90
19906;DHT22;10115;50.906;4.438;2023-05-07T07:08:18;15.80;99.90
19906;DHT22;10115;50.906;4.438;2023-05-07T07:10:44;15.90;99.90
19906;DHT22;10115;50.906;4.438;2023-05-07T07:13:09;15.90;99.90
19906;DHT22;10115;50.906;4.438;2023-05-07T07:15:35;16.00;99.90
19906;DHT22;10115;50.906;4.438;2023-05-07T07:18:01;16.00;99.90
19906;DHT22;10115;50.906;4.438;2023-05-07T07:20:26;16.00;99.90
19906;DHT22;10115;50.906;4.438;2023-05-07T07:22:52;16.10;99.90
19906;DHT22;10115;50.906;4.438;2023-05-07T07:25:18;16.10;99.90
19906;DHT22;10115;50.906;4.438;2023-05-07T07:27:43;15.90;99.90
19906;DHT22;10115;50.906;4.438;2023-05-07T07:30:09;15.70;99.90
19906;DHT22;10115;50.906;4.438;2023-05-07T07:32:35;15.50;99.90
19906;DHT22;10115;50.906;4.438;2023-05-07T07:35:01;15.50;99.90
19906;DHT22;10115;50.906;4.438;2023-05-07T07:37:27;15.40;99.90
19906;DHT22;10115;50.906;4.438;2023-05-07T07:39:52;15.40;99.90
19906;DHT22;10115;50.906;4.438;2023-05-07T07:42:18;15.40;99.90
19906;DHT22;10115;50.906;4.438;2023-05-07T07:44:44;15.40;99.90
19906;DHT22;10115;50.906;4.438;2023-05-07T07:47:10;15.40;99.90
19906;DHT22;10115;50.906;4.438;2023-05-07T07:49:35;15.30;99.90
19906;DHT22;10115;50.906;4.438;2023-05-07T07:52:01;15.30;99.90
19906;DHT22;10115;50.906;4.438;2023-05-07T07:54:29;15.30;99.90
19906;DHT22;10115;50.906;4.438;2023-05-07T07:56:54;15.30;99.90
19906;DHT22;10115;50.906;4.438;2023-05-07T07:59:20;15.30;99.90
19906;DHT22;10115;50.906;4.438;2023-05-07T08:01:46;15.40;99.90
19906;DHT22;10115;50.906;4.438;2023-05-07T08:04:13;15.50;99.90
19906;DHT22;10115;50.906;4.438;2023-05-07T08:06:39;15.40;99.90
19906;DHT22;10115;50.906;4.438;2023-05-07T08:09:05;15.50;99.90
19906;DHT22;10115;50.906;4.438;2023-05-07T08:11:33;15.50;99.90
19906;DHT22;10115;50.906;4.438;2023-05-07T08:13:58;15.50;99.90
19906;DHT22;10115;50.906;4.438;2023-05-07T08:16:24;15.70;99.90
19906;DHT22;10115;50.906;4.438;2023-05-07T08:18:50;15.60;99.90
19906;DHT22;10115;50.906;4.438;2023-05-07T08:21:16;15.60;99.90
19906;DHT22;10115;50.906;4.438;2023-05-07T08:23:41;15.50;99.90
19906;DHT22;10115;50.906;4.438;2023-05-07T08:26:08;15.40;99.90
19906;DHT22;10115;50.906;4.438;2023-05-07T08:28:33;15.40;99.90
19906;DHT22;10115;50.906;4.438;2023-05-07T08:30:59;15.40;99.90
19906;DHT22;10115;50.906;4.438;2023-05-07T08:33:26;15.50;99.90
19906;DHT22;10115;50.906;4.438;2023-05-07T08:35:52;15.60;99.90
19906;DHT22;10115;50.906;4.438;2023-05-07T08:38:18;15.60;99.90
19906;DHT22;10115;50.906;4.438;2023-05-07T08:40:43;15.60;99.90
19906;DHT22;10115;50.906;4.438;2023-05-07T08:43:12;15.60;99.90
19906;DHT22;10115;50.906;4.438;2023-05-07T08:45:40;15.60;99.90
19906;DHT22;10115;50.906;4.438;2023-05-07T08:48:10;15.70;99.90
19906;DHT22;10115;50.906;4.438;2023-05-07T08:50:39;15.60;99.90
19906;DHT22;10115;50.906;4.438;2023-05-07T08:53:05;15.50;99.90
19906;DHT22;10115;50.906;4.438;2023-05-07T08:55:31;15.50;99.90
19906;DHT22;10115;50.906;4.438;2023-05-07T08:57:56;15.40;99.90
19906;DHT22;10115;50.906;4.438;2023-05-07T09:00:22;15.50;99.90
19906;DHT22;10115;50.906;4.438;2023-05-07T09:02:48;15.40;99.90
19906;DHT22;10115;50.906;4.438;2023-05-07T09:05:14;15.40;99.90
19906;DHT22;10115;50.906;4.438;2023-05-07T09:07:39;15.50;99.90
19906;DHT22;10115;50.906;4.438;2023-05-07T09:10:06;15.50;99.90
19906;DHT22;10115;50.906;4.438;2023-05-07T09:12:32;15.80;99.90
19906;DHT22;10115;50.906;4.438;2023-05-07T09:14:59;15.80;99.90
19906;DHT22;10115;50.906;4.438;2023-05-07T09:17:25;16.00;99.90
19906;DHT22;10115;50.906;4.438;2023-05-07T09:19:50;16.20;99.90
19906;DHT22;10115;50.906;4.438;2023-05-07T09:22:16;16.50;99.90
19906;DHT22;10115;50.906;4.438;2023-05-07T09:24:47;16.50;99.90
19906;DHT22;10115;50.906;4.438;2023-05-07T09:27:13;16.50;99.90
19906;DHT22;10115;50.906;4.438;2023-05-07T09:29:39;16.40;99.90
19906;DHT22;10115;50.906;4.438;2023-05-07T09:32:06;16.40;99.90
19906;DHT22;10115;50.906;4.438;2023-05-07T09:34:32;16.50;99.90
19906;DHT22;10115;50.906;4.438;2023-05-07T09:37:02;16.90;99.90
19906;DHT22;10115;50.906;4.438;2023-05-07T09:39:45;17.10;99.90
19906;DHT22;10115;50.906;4.438;2023-05-07T09:42:12;16.80;99.90
19906;DHT22;10115;50.906;4.438;2023-05-07T09:44:38;16.60;99.90
19906;DHT22;10115;50.906;4.438;2023-05-07T09:47:08;16.40;99.90
19906;DHT22;10115;50.906;4.438;2023-05-07T09:49:35;16.10;99.90
19906;DHT22;10115;50.906;4.438;2023-05-07T09:52:03;16.10;99.90
19906;DHT22;10115;50.906;4.438;2023-05-07T09:54:33;16.20;99.90
19906;DHT22;10115;50.906;4.438;2023-05-07T09:57:01;16.40;99.90
19906;DHT22;10115;50.906;4.438;2023-05-07T09:59:30;16.10;99.90
19906;DHT22;10115;50.906;4.438;2023-05-07T10:01:58;15.90;99.90
19906;DHT22;10115;50.906;4.438;2023-05-07T10:04:25;15.90;99.90
19906;DHT22;10115;50.906;4.438;2023-05-07T10:06:52;15.80;99.90
19906;DHT22;10115;50.906;4.438;2023-05-07T10:09:19;15.80;99.90
19906;DHT22;10115;50.906;4.438;2023-05-07T10:11:46;15.90;99.90
19906;DHT22;10115;50.906;4.438;2023-05-07T10:14:13;15.90;99.90
19906;DHT22;10115;50.906;4.438;2023-05-07T10:16:40;16.20;99.90
19906;DHT22;10115;50.906;4.438;2023-05-07T10:19:07;16.40;99.90
19906;DHT22;10115;50.906;4.438;2023-05-07T10:21:36;16.80;99.90
19906;DHT22;10115;50.906;4.438;2023-05-07T10:24:09;17.10;99.90
19906;DHT22;10115;50.906;4.438;2023-05-07T10:26:42;17.20;99.90
19906;DHT22;10115;50.906;4.438;2023-05-07T10:29:15;16.90;99.90
19906;DHT22;10115;50.906;4.438;2023-05-07T10:31:55;17.20;99.90
19906;DHT22;10115;50.906;4.438;2023-05-07T10:34:26;17.60;99.90
19906;DHT22;10115;50.906;4.438;2023-05-07T10:36:54;17.60;99.90
19906;DHT22;10115;50.906;4.438;2023-05-07T10:39:21;17.70;99.90
19906;DHT22;10115;50.906;4.438;2023-05-07T10:41:48;17.50;99.90
19906;DHT22;10115;50.906;4.438;2023-05-07T10:44:27;17.50;99.90
19906;DHT22;10115;50.906;4.438;2023-05-07T10:47:15;17.40;99.90
19906;DHT22;10115;50.906;4.438;2023-05-07T10:52:24;17.80;99.90
19906;DHT22;10115;50.906;4.438;2023-05-07T10:57:44;17.90;99.90
19906;DHT22;10115;50.906;4.438;2023-05-07T11:05:31;18.70;99.90
19906;DHT22;10115;50.906;4.438;2023-05-07T11:08:01;18.90;99.90
19906;DHT22;10115;50.906;4.438;2023-05-07T11:10:55;18.60;99.90
19906;DHT22;10115;50.906;4.438;2023-05-07T11:13:41;18.40;99.90
19906;DHT22;10115;50.906;4.438;2023-05-07T11:16:36;18.20;99.90
19906;DHT22;10115;50.906;4.438;2023-05-07T11:19:04;17.90;99.90
19906;DHT22;10115;50.906;4.438;2023-05-07T11:21:38;18.10;99.90
19906;DHT22;10115;50.906;4.438;2023-05-07T11:24:06;18.00;99.90
19906;DHT22;10115;50.906;4.438;2023-05-07T11:26:47;18.10;99.90
19906;DHT22;10115;50.906;4.438;2023-05-07T11:29:21;18.50;99.90
19906;DHT22;10115;50.906;4.438;2023-05-07T11:31:52;18.80;99.90
19906;DHT22;10115;50.906;4.438;2023-05-07T11:34:23;19.20;99.90
19906;DHT22;10115;50.906;4.438;2023-05-07T11:36:49;19.30;99.90
19906;DHT22;10115;50.906;4.438;2023-05-07T11:39:32;19.40;99.90
19906;DHT22;10115;50.906;4.438;2023-05-07T11:42:01;19.10;99.90
19906;DHT22;10115;50.906;4.438;2023-05-07T11:44:46;18.50;99.90
19906;DHT22;10115;50.906;4.438;2023-05-07T11:47:20;18.60;99.90
19906;DHT22;10115;50.906;4.438;2023-05-07T11:49:50;19.00;99.90
19906;DHT22;10115;50.906;4.438;2023-05-07T11:52:17;19.40;99.90
19906;DHT22;10115;50.906;4.438;2023-05-07T11:54:51;19.60;99.90
19906;DHT22;10115;50.906;4.438;2023-05-07T11:57:17;19.60;99.90
19906;DHT22;10115;50.906;4.438;2023-05-07T11:59:43;18.90;99.90
19906;DHT22;10115;50.906;4.438;2023-05-07T12:02:17;18.60;99.90
19906;DHT22;10115;50.906;4.438;2023-05-07T12:04:44;18.70;99.90
19906;DHT22;10115;50.906;4.438;2023-05-07T12:07:16;18.70;99.90
19906;DHT22;10115;50.906;4.438;2023-05-07T12:09:44;18.50;99.90
19906;DHT22;10115;50.906;4.438;2023-05-07T12:12:10;18.70;99.90
19906;DHT22;10115;50.906;4.438;2023-05-07T12:14:43;19.30;99.90
19906;DHT22;10115;50.906;4.438;2023-05-07T12:17:10;19.60;99.90
19906;DHT22;10115;50.906;4.438;2023-05-07T12:19:38;19.90;99.90
19906;DHT22;10115;50.906;4.438;2023-05-07T12:22:04;19.70;99.90
19906;DHT22;10115;50.906;4.438;2023-05-07T12:24:47;18.90;99.90
19906;DHT22;10115;50.906;4.438;2023-05-07T12:27:17;18.40;99.90
19906;DHT22;10115;50.906;4.438;2023-05-07T12:29:50;18.00;99.90
19906;DHT22;10115;50.906;4.438;2023-05-07T12:32:17;18.40;99.90
19906;DHT22;10115;50.906;4.438;2023-05-07T12:34:43;19.10;99.90
19906;DHT22;10115;50.906;4.438;2023-05-07T12:37:10;19.10;99.90
19906;DHT22;10115;50.906;4.438;2023-05-07T12:39:36;19.00;99.90
19906;DHT22;10115;50.906;4.438;2023-05-07T12:42:02;19.70;99.90
19906;DHT22;10115;50.906;4.438;2023-05-07T12:44:33;20.00;99.90
19906;DHT22;10115;50.906;4.438;2023-05-07T12:47:02;20.00;99.90
19906;DHT22;10115;50.906;4.438;2023-05-07T12:49:28;19.20;99.90
19906;DHT22;10115;50.906;4.438;2023-05-07T12:51:54;18.70;99.90
19906;DHT22;10115;50.906;4.438;2023-05-07T12:54:31;19.00;99.90
19906;DHT22;10115;50.906;4.438;2023-05-07T12:57:19;19.40;99.90
19906;DHT22;10115;50.906;4.438;2023-05-07T12:59:45;19.40;99.90
19906;DHT22;10115;50.906;4.438;2023-05-07T13:02:10;19.40;99.90
19906;DHT22;10115;50.906;4.438;2023-05-07T13:04:36;18.60;99.90
19906;DHT22;10115;50.906;4.438;2023-05-07T13:07:02;18.80;99.90
19906;DHT22;10115;50.906;4.438;2023-05-07T13:09:28;19.50;99.90
19906;DHT22;10115;50.906;4.438;2023-05-07T13:11:58;19.10;99.90
19906;DHT22;10115;50.906;4.438;2023-05-07T13:14:26;18.70;99.90
19906;DHT22;10115;50.906;4.438;2023-05-07T13:16:52;18.60;99.90
19906;DHT22;10115;50.906;4.438;2023-05-07T13:19:18;18.70;99.90
19906;DHT22;10115;50.906;4.438;2023-05-07T13:21:43;18.70;99.90
19906;DHT22;10115;50.906;4.438;2023-05-07T13:24:09;18.70;99.90
19906;DHT22;10115;50.906;4.438;2023-05-07T13:26:35;18.70;99.90
19906;DHT22;10115;50.906;4.438;2023-05-07T13:29:00;18.60;99.90
19906;DHT22;10115;50.906;4.438;2023-05-07T13:31:26;18.90;99.90
19906;DHT22;10115;50.906;4.438;2023-05-07T13:33:52;19.10;99.90
19906;DHT22;10115;50.906;4.438;2023-05-07T13:36:18;19.50;99.90
19906;DHT22;10115;50.906;4.438;2023-05-07T13:38:43;19.10;99.90
19906;DHT22;10115;50.906;4.438;2023-05-07T13:41:09;19.20;99.90
19906;DHT22;10115;50.906;4.438;2023-05-07T13:43:35;19.60;99.90
19906;DHT22;10115;50.906;4.438;2023-05-07T13:46:01;18.70;99.90
19906;DHT22;10115;50.906;4.438;2023-05-07T13:48:26;18.80;99.90
19906;DHT22;10115;50.906;4.438;2023-05-07T13:50:53;18.80;99.90
19906;DHT22;10115;50.906;4.438;2023-05-07T13:53:19;18.80;99.90
19906;DHT22;10115;50.906;4.438;2023-05-07T13:55:45;18.80;99.90
19906;DHT22;10115;50.906;4.438;2023-05-07T13:58:11;18.70;99.90
19906;DHT22;10115;50.906;4.438;2023-05-07T14:00:37;18.50;99.90
19906;DHT22;10115;50.906;4.438;2023-05-07T14:03:04;18.90;99.90
19906;DHT22;10115;50.906;4.438;2023-05-07T14:05:30;18.70;99.90
19906;DHT22;10115;50.906;4.438;2023-05-07T14:07:57;19.00;99.90
19906;DHT22;10115;50.906;4.438;2023-05-07T14:10:23;19.30;99.90
19906;DHT22;10115;50.906;4.438;2023-05-07T14:12:49;18.90;99.90
19906;DHT22;10115;50.906;4.438;2023-05-07T14:15:15;18.70;99.90
19906;DHT22;10115;50.906;4.438;2023-05-07T14:17:44;19.00;99.90
19906;DHT22;10115;50.906;4.438;2023-05-07T14:20:11;19.10;99.90
19906;DHT22;10115;50.906;4.438;2023-05-07T14:22:37;18.80;99.90
19906;DHT22;10115;50.906;4.438;2023-05-07T14:25:04;18.40;99.90
19906;DHT22;10115;50.906;4.438;2023-05-07T14:27:30;18.10;99.90
19906;DHT22;10115;50.906;4.438;2023-05-07T14:29:55;18.10;99.90
19906;DHT22;10115;50.906;4.438;2023-05-07T14:32:21;18.30;99.90
19906;DHT22;10115;50.906;4.438;2023-05-07T14:34:47;18.50;99.90
19906;DHT22;10115;50.906;4.438;2023-05-07T14:37:13;18.40;99.90
19906;DHT22;10115;50.906;4.438;2023-05-07T14:39:39;18.60;99.90
19906;DHT22;10115;50.906;4.438;2023-05-07T14:42:05;18.40;99.90
19906;DHT22;10115;50.906;4.438;2023-05-07T14:44:35;18.50;99.90
19906;DHT22;10115;50.906;4.438;2023-05-07T14:47:01;18.80;99.90
19906;DHT22;10115;50.906;4.438;2023-05-07T14:49:27;19.40;99.90
19906;DHT22;10115;50.906;4.438;2023-05-07T14:51:53;20.00;99.90
19906;DHT22;10115;50.906;4.438;2023-05-07T14:54:19;20.30;99.90
19906;DHT22;10115;50.906;4.438;2023-05-07T14:56:44;20.60;99.90
19906;DHT22;10115;50.906;4.438;2023-05-07T14:59:10;20.50;99.90
19906;DHT22;10115;50.906;4.438;2023-05-07T15:01:37;20.70;99.90
19906;DHT22;10115;50.906;4.438;2023-05-07T15:04:03;20.40;99.90
19906;DHT22;10115;50.906;4.438;2023-05-07T15:06:30;19.70;99.90
19906;DHT22;10115;50.906;4.438;2023-05-07T15:08:56;19.80;99.90
19906;DHT22;10115;50.906;4.438;2023-05-07T15:11:22;19.80;99.90
19906;DHT22;10115;50.906;4.438;2023-05-07T15:13:49;19.70;99.90
19906;DHT22;10115;50.906;4.438;2023-05-07T15:16:15;19.60;99.90
19906;DHT22;10115;50.906;4.438;2023-05-07T15:18:40;19.70;99.90
19906;DHT22;10115;50.906;4.438;2023-05-07T15:21:06;19.90;99.90
19906;DHT22;10115;50.906;4.438;2023-05-07T15:23:32;20.20;99.90
19906;DHT22;10115;50.906;4.438;2023-05-07T15:25:57;20.40;99.90
19906;DHT22;10115;50.906;4.438;2023-05-07T15:28:23;20.50;99.90
19906;DHT22;10115;50.906;4.438;2023-05-07T15:30:50;20.30;99.90
19906;DHT22;10115;50.906;4.438;2023-05-07T15:33:16;20.00;99.90
19906;DHT22;10115;50.906;4.438;2023-05-07T15:35:42;20.00;99.90
19906;DHT22;10115;50.906;4.438;2023-05-07T15:38:07;20.10;99.90
19906;DHT22;10115;50.906;4.438;2023-05-07T15:40:34;20.10;99.90